RJOF(METAR)
12/04 19:00
METAR RJOF 041000Z 36004KT 9999 FEW030 BKN150 11/04 Q1024 RMK 1CU030
7AC150 A3024=
戻る
トップページへ戻る
IMOC Co,.Ltd.